sensor_id;sensor_type;location;lat;lon;timestamp;P1;durP1;ratioP1;P2;durP2;ratioP2
56285;SDS011;42191;47.562;9.686;2022-08-25T00:01:08;31.02;;;29.08;;
56285;SDS011;42191;47.562;9.686;2022-08-25T00:03:39;31.92;;;29.92;;
56285;SDS011;42191;47.562;9.686;2022-08-25T00:06:07;30.40;;;28.50;;
56285;SDS011;42191;47.562;9.686;2022-08-25T00:08:34;33.17;;;31.08;;
56285;SDS011;42191;47.562;9.686;2022-08-25T00:11:03;31.20;;;29.15;;
56285;SDS011;42191;47.562;9.686;2022-08-25T00:13:30;31.85;;;29.60;;
56285;SDS011;42191;47.562;9.686;2022-08-25T00:15:56;31.40;;;29.50;;
56285;SDS011;42191;47.562;9.686;2022-08-25T00:18:23;31.17;;;29.02;;
56285;SDS011;42191;47.562;9.686;2022-08-25T00:20:49;32.03;;;29.98;;
56285;SDS011;42191;47.562;9.686;2022-08-25T00:23:15;30.17;;;28.27;;
56285;SDS011;42191;47.562;9.686;2022-08-25T00:25:42;31.35;;;29.30;;
56285;SDS011;42191;47.562;9.686;2022-08-25T00:28:08;31.67;;;29.70;;
56285;SDS011;42191;47.562;9.686;2022-08-25T00:30:34;31.52;;;29.50;;
56285;SDS011;42191;47.562;9.686;2022-08-25T00:33:01;33.75;;;31.45;;
56285;SDS011;42191;47.562;9.686;2022-08-25T00:35:28;31.83;;;29.73;;
56285;SDS011;42191;47.562;9.686;2022-08-25T00:37:54;30.80;;;28.90;;
56285;SDS011;42191;47.562;9.686;2022-08-25T00:40:21;30.77;;;28.77;;
56285;SDS011;42191;47.562;9.686;2022-08-25T00:42:49;33.35;;;31.05;;
56285;SDS011;42191;47.562;9.686;2022-08-25T00:45:15;32.35;;;30.35;;
56285;SDS011;42191;47.562;9.686;2022-08-25T00:47:42;30.85;;;28.95;;
56285;SDS011;42191;47.562;9.686;2022-08-25T00:50:08;31.10;;;29.13;;
56285;SDS011;42191;47.562;9.686;2022-08-25T00:52:37;31.95;;;29.95;;
56285;SDS011;42191;47.562;9.686;2022-08-25T01:00:49;31.75;;;29.63;;
56285;SDS011;42191;47.562;9.686;2022-08-25T01:03:18;33.20;;;31.08;;
56285;SDS011;42191;47.562;9.686;2022-08-25T01:05:45;31.05;;;29.15;;
56285;SDS011;42191;47.562;9.686;2022-08-25T01:08:12;30.08;;;28.20;;
56285;SDS011;42191;47.562;9.686;2022-08-25T01:10:40;32.22;;;30.20;;
56285;SDS011;42191;47.562;9.686;2022-08-25T01:13:10;31.52;;;29.52;;
56285;SDS011;42191;47.562;9.686;2022-08-25T01:15:42;33.13;;;31.08;;
56285;SDS011;42191;47.562;9.686;2022-08-25T01:18:10;30.60;;;28.55;;
56285;SDS011;42191;47.562;9.686;2022-08-25T01:20:36;30.42;;;28.52;;
56285;SDS011;42191;47.562;9.686;2022-08-25T01:23:02;30.77;;;28.85;;
56285;SDS011;42191;47.562;9.686;2022-08-25T01:28:28;31.98;;;29.90;;
56285;SDS011;42191;47.562;9.686;2022-08-25T01:30:54;32.08;;;30.08;;
56285;SDS011;42191;47.562;9.686;2022-08-25T01:33:20;32.13;;;29.98;;
56285;SDS011;42191;47.562;9.686;2022-08-25T01:35:47;29.30;;;27.48;;
56285;SDS011;42191;47.562;9.686;2022-08-25T01:38:13;31.38;;;29.40;;
56285;SDS011;42191;47.562;9.686;2022-08-25T01:40:41;33.22;;;31.02;;
56285;SDS011;42191;47.562;9.686;2022-08-25T01:45:40;32.58;;;30.58;;
56285;SDS011;42191;47.562;9.686;2022-08-25T01:48:09;32.88;;;30.77;;
56285;SDS011;42191;47.562;9.686;2022-08-25T01:50:36;31.20;;;29.30;;
56285;SDS011;42191;47.562;9.686;2022-08-25T01:53:06;31.88;;;29.67;;
56285;SDS011;42191;47.562;9.686;2022-08-25T01:55:33;32.35;;;30.35;;
56285;SDS011;42191;47.562;9.686;2022-08-25T01:58:23;32.83;;;30.73;;
56285;SDS011;42191;47.562;9.686;2022-08-25T02:00:53;31.98;;;29.88;;
56285;SDS011;42191;47.562;9.686;2022-08-25T02:03:21;33.35;;;31.15;;
56285;SDS011;42191;47.562;9.686;2022-08-25T02:05:48;32.58;;;30.58;;
56285;SDS011;42191;47.562;9.686;2022-08-25T02:08:15;32.22;;;30.23;;
56285;SDS011;42191;47.562;9.686;2022-08-25T02:10:41;32.15;;;30.05;;
56285;SDS011;42191;47.562;9.686;2022-08-25T02:13:08;31.55;;;29.55;;
56285;SDS011;42191;47.562;9.686;2022-08-25T02:15:38;32.67;;;30.63;;
56285;SDS011;42191;47.562;9.686;2022-08-25T02:18:09;31.50;;;29.52;;
56285;SDS011;42191;47.562;9.686;2022-08-25T02:20:36;32.95;;;30.92;;
56285;SDS011;42191;47.562;9.686;2022-08-25T02:25:37;31.60;;;29.60;;
56285;SDS011;42191;47.562;9.686;2022-08-25T02:28:05;31.75;;;29.73;;
56285;SDS011;42191;47.562;9.686;2022-08-25T02:30:32;33.78;;;31.58;;
56285;SDS011;42191;47.562;9.686;2022-08-25T02:32:59;32.95;;;30.83;;
56285;SDS011;42191;47.562;9.686;2022-08-25T02:35:25;32.45;;;30.45;;
56285;SDS011;42191;47.562;9.686;2022-08-25T02:37:51;31.73;;;29.73;;
56285;SDS011;42191;47.562;9.686;2022-08-25T02:40:18;33.10;;;31.00;;
56285;SDS011;42191;47.562;9.686;2022-08-25T02:42:48;32.42;;;30.33;;
56285;SDS011;42191;47.562;9.686;2022-08-25T02:45:15;33.72;;;31.63;;
56285;SDS011;42191;47.562;9.686;2022-08-25T02:47:42;34.67;;;32.42;;
56285;SDS011;42191;47.562;9.686;2022-08-25T02:50:09;31.30;;;29.33;;
56285;SDS011;42191;47.562;9.686;2022-08-25T02:52:36;33.67;;;31.48;;
56285;SDS011;42191;47.562;9.686;2022-08-25T02:55:05;33.25;;;31.05;;
56285;SDS011;42191;47.562;9.686;2022-08-25T02:57:33;33.95;;;31.77;;
56285;SDS011;42191;47.562;9.686;2022-08-25T03:00:00;33.92;;;31.83;;
56285;SDS011;42191;47.562;9.686;2022-08-25T03:02:27;31.80;;;29.80;;
56285;SDS011;42191;47.562;9.686;2022-08-25T03:04:53;32.97;;;30.88;;
56285;SDS011;42191;47.562;9.686;2022-08-25T03:07:19;32.05;;;30.05;;
56285;SDS011;42191;47.562;9.686;2022-08-25T03:09:46;32.72;;;30.63;;
56285;SDS011;42191;47.562;9.686;2022-08-25T03:12:12;32.67;;;30.58;;
56285;SDS011;42191;47.562;9.686;2022-08-25T03:14:39;34.35;;;31.95;;
56285;SDS011;42191;47.562;9.686;2022-08-25T03:17:05;34.13;;;31.83;;
56285;SDS011;42191;47.562;9.686;2022-08-25T03:19:32;33.35;;;31.25;;
56285;SDS011;42191;47.562;9.686;2022-08-25T03:21:59;33.15;;;30.85;;
56285;SDS011;42191;47.562;9.686;2022-08-25T03:24:25;34.50;;;32.30;;
56285;SDS011;42191;47.562;9.686;2022-08-25T03:26:52;33.70;;;31.45;;
56285;SDS011;42191;47.562;9.686;2022-08-25T03:29:19;33.05;;;31.02;;
56285;SDS011;42191;47.562;9.686;2022-08-25T03:31:47;33.33;;;31.23;;
56285;SDS011;42191;47.562;9.686;2022-08-25T03:34:14;34.13;;;31.98;;
56285;SDS011;42191;47.562;9.686;2022-08-25T03:36:42;33.13;;;31.02;;
56285;SDS011;42191;47.562;9.686;2022-08-25T03:39:10;34.13;;;31.80;;
56285;SDS011;42191;47.562;9.686;2022-08-25T03:41:37;33.70;;;31.60;;
56285;SDS011;42191;47.562;9.686;2022-08-25T03:44:04;32.70;;;30.70;;
56285;SDS011;42191;47.562;9.686;2022-08-25T03:46:33;32.35;;;30.15;;
56285;SDS011;42191;47.562;9.686;2022-08-25T03:49:08;32.35;;;30.27;;
56285;SDS011;42191;47.562;9.686;2022-08-25T03:51:38;32.58;;;30.48;;
56285;SDS011;42191;47.562;9.686;2022-08-25T03:54:06;33.83;;;31.63;;
56285;SDS011;42191;47.562;9.686;2022-08-25T03:56:34;32.63;;;30.48;;
56285;SDS011;42191;47.562;9.686;2022-08-25T03:59:00;33.10;;;30.83;;
56285;SDS011;42191;47.562;9.686;2022-08-25T04:01:27;33.80;;;31.70;;
56285;SDS011;42191;47.562;9.686;2022-08-25T04:03:53;31.42;;;29.42;;
56285;SDS011;42191;47.562;9.686;2022-08-25T04:06:20;33.78;;;31.60;;
56285;SDS011;42191;47.562;9.686;2022-08-25T04:08:47;31.60;;;29.60;;
56285;SDS011;42191;47.562;9.686;2022-08-25T04:11:14;32.70;;;30.65;;
56285;SDS011;42191;47.562;9.686;2022-08-25T04:13:42;32.65;;;30.58;;
56285;SDS011;42191;47.562;9.686;2022-08-25T04:16:18;32.08;;;29.98;;
56285;SDS011;42191;47.562;9.686;2022-08-25T04:18:46;32.67;;;30.58;;
56285;SDS011;42191;47.562;9.686;2022-08-25T04:21:13;34.42;;;32.22;;
56285;SDS011;42191;47.562;9.686;2022-08-25T04:23:42;33.65;;;31.55;;
56285;SDS011;42191;47.562;9.686;2022-08-25T04:26:10;33.55;;;31.45;;
56285;SDS011;42191;47.562;9.686;2022-08-25T04:28:39;32.22;;;30.15;;
56285;SDS011;42191;47.562;9.686;2022-08-25T04:31:08;33.67;;;31.23;;
56285;SDS011;42191;47.562;9.686;2022-08-25T04:33:36;34.22;;;31.92;;
56285;SDS011;42191;47.562;9.686;2022-08-25T04:36:03;34.13;;;31.92;;
56285;SDS011;42191;47.562;9.686;2022-08-25T04:38:30;34.17;;;31.73;;
56285;SDS011;42191;47.562;9.686;2022-08-25T04:40:57;31.45;;;29.45;;
56285;SDS011;42191;47.562;9.686;2022-08-25T04:43:24;33.33;;;31.23;;
56285;SDS011;42191;47.562;9.686;2022-08-25T04:45:51;33.70;;;31.50;;
56285;SDS011;42191;47.562;9.686;2022-08-25T04:48:17;31.70;;;29.67;;
56285;SDS011;42191;47.562;9.686;2022-08-25T04:50:43;32.85;;;30.80;;
56285;SDS011;42191;47.562;9.686;2022-08-25T04:53:10;33.83;;;31.63;;
56285;SDS011;42191;47.562;9.686;2022-08-25T04:55:40;34.00;;;31.85;;
56285;SDS011;42191;47.562;9.686;2022-08-25T04:58:07;32.17;;;30.13;;
56285;SDS011;42191;47.562;9.686;2022-08-25T05:00:34;33.63;;;31.52;;
56285;SDS011;42191;47.562;9.686;2022-08-25T05:03:01;33.08;;;30.98;;
56285;SDS011;42191;47.562;9.686;2022-08-25T05:05:28;31.60;;;29.63;;
56285;SDS011;42191;47.562;9.686;2022-08-25T05:07:55;33.72;;;31.42;;
56285;SDS011;42191;47.562;9.686;2022-08-25T05:10:21;34.55;;;32.45;;
56285;SDS011;42191;47.562;9.686;2022-08-25T05:12:48;34.65;;;32.40;;
56285;SDS011;42191;47.562;9.686;2022-08-25T05:15:14;32.75;;;30.65;;
56285;SDS011;42191;47.562;9.686;2022-08-25T05:17:59;32.65;;;30.45;;
56285;SDS011;42191;47.562;9.686;2022-08-25T05:20:25;32.35;;;30.35;;
56285;SDS011;42191;47.562;9.686;2022-08-25T05:22:51;32.88;;;30.67;;
56285;SDS011;42191;47.562;9.686;2022-08-25T05:25:17;32.33;;;30.33;;
56285;SDS011;42191;47.562;9.686;2022-08-25T05:27:43;32.03;;;29.95;;
56285;SDS011;42191;47.562;9.686;2022-08-25T05:30:10;33.22;;;31.13;;
56285;SDS011;42191;47.562;9.686;2022-08-25T05:32:37;34.45;;;32.25;;
56285;SDS011;42191;47.562;9.686;2022-08-25T05:35:04;34.42;;;32.03;;
56285;SDS011;42191;47.562;9.686;2022-08-25T05:37:31;33.72;;;31.55;;
56285;SDS011;42191;47.562;9.686;2022-08-25T05:39:57;34.03;;;31.73;;
56285;SDS011;42191;47.562;9.686;2022-08-25T05:42:23;34.22;;;32.13;;
56285;SDS011;42191;47.562;9.686;2022-08-25T05:44:50;33.47;;;31.38;;
56285;SDS011;42191;47.562;9.686;2022-08-25T05:47:16;33.47;;;31.17;;
56285;SDS011;42191;47.562;9.686;2022-08-25T05:49:42;32.63;;;30.52;;
56285;SDS011;42191;47.562;9.686;2022-08-25T05:52:08;33.75;;;31.65;;
56285;SDS011;42191;47.562;9.686;2022-08-25T05:54:34;30.95;;;29.00;;
56285;SDS011;42191;47.562;9.686;2022-08-25T05:57:01;32.28;;;30.20;;
56285;SDS011;42191;47.562;9.686;2022-08-25T05:59:28;32.00;;;30.02;;
56285;SDS011;42191;47.562;9.686;2022-08-25T06:01:54;31.92;;;29.90;;
56285;SDS011;42191;47.562;9.686;2022-08-25T06:04:39;31.73;;;29.70;;
56285;SDS011;42191;47.562;9.686;2022-08-25T06:07:07;33.53;;;31.13;;
56285;SDS011;42191;47.562;9.686;2022-08-25T06:09:36;33.47;;;31.20;;
56285;SDS011;42191;47.562;9.686;2022-08-25T06:12:03;32.25;;;30.25;;
56285;SDS011;42191;47.562;9.686;2022-08-25T06:14:30;33.97;;;31.77;;
56285;SDS011;42191;47.562;9.686;2022-08-25T06:16:57;31.30;;;29.30;;
56285;SDS011;42191;47.562;9.686;2022-08-25T06:19:24;32.03;;;29.90;;
56285;SDS011;42191;47.562;9.686;2022-08-25T06:21:52;32.35;;;30.30;;
56285;SDS011;42191;47.562;9.686;2022-08-25T06:24:19;32.63;;;30.63;;
56285;SDS011;42191;47.562;9.686;2022-08-25T06:26:46;33.95;;;31.75;;
56285;SDS011;42191;47.562;9.686;2022-08-25T06:29:12;33.42;;;31.33;;
56285;SDS011;42191;47.562;9.686;2022-08-25T06:31:38;33.25;;;31.15;;
56285;SDS011;42191;47.562;9.686;2022-08-25T06:34:05;31.77;;;29.58;;
56285;SDS011;42191;47.562;9.686;2022-08-25T06:36:31;30.65;;;28.73;;
56285;SDS011;42191;47.562;9.686;2022-08-25T06:38:58;32.40;;;30.33;;
56285;SDS011;42191;47.562;9.686;2022-08-25T06:41:25;32.95;;;30.75;;
56285;SDS011;42191;47.562;9.686;2022-08-25T06:43:51;32.33;;;30.27;;
56285;SDS011;42191;47.562;9.686;2022-08-25T06:46:18;32.40;;;30.40;;
56285;SDS011;42191;47.562;9.686;2022-08-25T06:48:47;31.85;;;29.85;;
56285;SDS011;42191;47.562;9.686;2022-08-25T06:51:14;31.95;;;29.95;;
56285;SDS011;42191;47.562;9.686;2022-08-25T06:53:43;32.10;;;29.90;;
56285;SDS011;42191;47.562;9.686;2022-08-25T06:56:11;33.70;;;31.40;;
56285;SDS011;42191;47.562;9.686;2022-08-25T06:58:38;31.85;;;29.85;;
56285;SDS011;42191;47.562;9.686;2022-08-25T07:01:11;31.90;;;29.83;;
56285;SDS011;42191;47.562;9.686;2022-08-25T07:03:43;30.77;;;28.75;;
56285;SDS011;42191;47.562;9.686;2022-08-25T07:06:10;31.15;;;28.95;;
56285;SDS011;42191;47.562;9.686;2022-08-25T07:08:36;32.63;;;30.52;;
56285;SDS011;42191;47.562;9.686;2022-08-25T07:11:05;30.23;;;28.27;;
56285;SDS011;42191;47.562;9.686;2022-08-25T07:13:33;30.30;;;28.40;;
56285;SDS011;42191;47.562;9.686;2022-08-25T07:16:00;31.13;;;29.13;;
56285;SDS011;42191;47.562;9.686;2022-08-25T07:18:26;31.70;;;29.65;;
56285;SDS011;42191;47.562;9.686;2022-08-25T07:20:53;32.55;;;30.35;;
56285;SDS011;42191;47.562;9.686;2022-08-25T07:23:20;31.95;;;29.80;;
56285;SDS011;42191;47.562;9.686;2022-08-25T07:25:47;30.83;;;28.77;;
56285;SDS011;42191;47.562;9.686;2022-08-25T07:28:15;31.65;;;29.65;;
56285;SDS011;42191;47.562;9.686;2022-08-25T07:30:42;31.85;;;29.75;;
56285;SDS011;42191;47.562;9.686;2022-08-25T07:33:09;32.53;;;30.40;;
56285;SDS011;42191;47.562;9.686;2022-08-25T07:35:35;30.67;;;28.73;;
56285;SDS011;42191;47.562;9.686;2022-08-25T07:38:02;31.83;;;29.83;;
56285;SDS011;42191;47.562;9.686;2022-08-25T07:40:33;31.55;;;29.48;;
56285;SDS011;42191;47.562;9.686;2022-08-25T07:43:02;31.02;;;29.10;;
56285;SDS011;42191;47.562;9.686;2022-08-25T07:45:32;31.00;;;29.10;;
56285;SDS011;42191;47.562;9.686;2022-08-25T07:48:01;30.33;;;28.48;;
56285;SDS011;42191;47.562;9.686;2022-08-25T07:50:28;29.88;;;28.08;;
56285;SDS011;42191;47.562;9.686;2022-08-25T07:52:56;30.27;;;28.38;;
56285;SDS011;42191;47.562;9.686;2022-08-25T07:55:23;30.52;;;28.55;;
56285;SDS011;42191;47.562;9.686;2022-08-25T07:57:51;29.40;;;27.45;;
56285;SDS011;42191;47.562;9.686;2022-08-25T08:00:19;30.58;;;28.58;;
56285;SDS011;42191;47.562;9.686;2022-08-25T08:02:45;30.02;;;28.13;;
56285;SDS011;42191;47.562;9.686;2022-08-25T08:05:12;32.08;;;30.08;;
56285;SDS011;42191;47.562;9.686;2022-08-25T08:07:39;30.67;;;28.55;;
56285;SDS011;42191;47.562;9.686;2022-08-25T08:10:06;30.90;;;28.80;;
56285;SDS011;42191;47.562;9.686;2022-08-25T08:12:34;30.38;;;28.48;;
56285;SDS011;42191;47.562;9.686;2022-08-25T08:15:01;29.63;;;27.77;;
56285;SDS011;42191;47.562;9.686;2022-08-25T08:17:27;30.42;;;28.52;;
56285;SDS011;42191;47.562;9.686;2022-08-25T08:19:55;29.60;;;27.60;;
56285;SDS011;42191;47.562;9.686;2022-08-25T08:22:22;29.50;;;27.65;;
56285;SDS011;42191;47.562;9.686;2022-08-25T08:24:48;31.35;;;29.35;;
56285;SDS011;42191;47.562;9.686;2022-08-25T08:27:14;31.05;;;28.60;;
56285;SDS011;42191;47.562;9.686;2022-08-25T08:29:40;30.05;;;28.13;;
56285;SDS011;42191;47.562;9.686;2022-08-25T08:32:08;31.15;;;29.15;;
56285;SDS011;42191;47.562;9.686;2022-08-25T08:34:37;28.30;;;26.55;;
56285;SDS011;42191;47.562;9.686;2022-08-25T08:37:05;30.13;;;28.13;;
56285;SDS011;42191;47.562;9.686;2022-08-25T08:39:32;30.52;;;28.63;;
56285;SDS011;42191;47.562;9.686;2022-08-25T08:49:40;31.13;;;28.85;;
56285;SDS011;42191;47.562;9.686;2022-08-25T08:52:10;29.83;;;27.92;;
56285;SDS011;42191;47.562;9.686;2022-08-25T08:54:42;30.95;;;29.05;;
56285;SDS011;42191;47.562;9.686;2022-08-25T08:57:15;29.70;;;27.73;;
56285;SDS011;42191;47.562;9.686;2022-08-25T08:59:47;30.33;;;28.42;;
56285;SDS011;42191;47.562;9.686;2022-08-25T09:02:20;29.00;;;27.23;;
56285;SDS011;42191;47.562;9.686;2022-08-25T09:04:54;29.23;;;27.23;;
56285;SDS011;42191;47.562;9.686;2022-08-25T09:07:28;29.65;;;27.73;;
56285;SDS011;42191;47.562;9.686;2022-08-25T09:10:04;30.27;;;28.38;;
56285;SDS011;42191;47.562;9.686;2022-08-25T09:12:33;29.63;;;27.52;;
56285;SDS011;42191;47.562;9.686;2022-08-25T09:18:15;29.00;;;27.20;;
56285;SDS011;42191;47.562;9.686;2022-08-25T09:23:33;28.63;;;26.75;;
56285;SDS011;42191;47.562;9.686;2022-08-25T09:26:28;29.02;;;27.15;;
56285;SDS011;42191;47.562;9.686;2022-08-25T09:29:25;28.98;;;26.98;;
56285;SDS011;42191;47.562;9.686;2022-08-25T09:32:10;30.02;;;28.13;;
56285;SDS011;42191;47.562;9.686;2022-08-25T09:34:36;30.02;;;27.83;;
56285;SDS011;42191;47.562;9.686;2022-08-25T09:37:02;29.73;;;27.75;;
56285;SDS011;42191;47.562;9.686;2022-08-25T09:39:28;30.80;;;28.90;;
56285;SDS011;42191;47.562;9.686;2022-08-25T09:41:55;29.90;;;28.00;;
56285;SDS011;42191;47.562;9.686;2022-08-25T09:49:43;30.35;;;28.25;;
56285;SDS011;42191;47.562;9.686;2022-08-25T09:54:50;30.65;;;28.23;;
56285;SDS011;42191;47.562;9.686;2022-08-25T09:57:35;30.48;;;28.38;;
56285;SDS011;42191;47.562;9.686;2022-08-25T10:02:44;30.33;;;28.42;;
56285;SDS011;42191;47.562;9.686;2022-08-25T10:05:25;30.10;;;28.20;;
56285;SDS011;42191;47.562;9.686;2022-08-25T10:07:53;30.80;;;28.52;;
56285;SDS011;42191;47.562;9.686;2022-08-25T10:10:26;31.08;;;29.08;;
56285;SDS011;42191;47.562;9.686;2022-08-25T10:12:55;29.95;;;28.08;;
56285;SDS011;42191;47.562;9.686;2022-08-25T10:15:26;30.40;;;28.40;;
56285;SDS011;42191;47.562;9.686;2022-08-25T10:18:15;30.33;;;28.33;;
56285;SDS011;42191;47.562;9.686;2022-08-25T10:23:27;31.85;;;29.85;;
56285;SDS011;42191;47.562;9.686;2022-08-25T10:25:54;31.50;;;29.38;;
56285;SDS011;42191;47.562;9.686;2022-08-25T10:28:26;30.50;;;28.45;;
56285;SDS011;42191;47.562;9.686;2022-08-25T10:31:06;29.75;;;27.75;;
56285;SDS011;42191;47.562;9.686;2022-08-25T10:39:05;31.38;;;29.23;;
56285;SDS011;42191;47.562;9.686;2022-08-25T10:44:31;28.92;;;26.80;;
56285;SDS011;42191;47.562;9.686;2022-08-25T10:47:33;29.95;;;28.05;;
56285;SDS011;42191;47.562;9.686;2022-08-25T10:55:31;30.00;;;27.75;;
56285;SDS011;42191;47.562;9.686;2022-08-25T10:58:25;30.25;;;28.17;;
56285;SDS011;42191;47.562;9.686;2022-08-25T11:01:12;29.02;;;27.17;;
56285;SDS011;42191;47.562;9.686;2022-08-25T11:03:57;30.63;;;28.60;;
56285;SDS011;42191;47.562;9.686;2022-08-25T11:09:09;30.05;;;28.00;;
56285;SDS011;42191;47.562;9.686;2022-08-25T11:11:40;29.67;;;27.77;;
56285;SDS011;42191;47.562;9.686;2022-08-25T11:14:17;31.20;;;28.35;;
56285;SDS011;42191;47.562;9.686;2022-08-25T11:16:50;29.63;;;27.70;;
56285;SDS011;42191;47.562;9.686;2022-08-25T11:25:19;29.42;;;27.52;;
56285;SDS011;42191;47.562;9.686;2022-08-25T11:28:20;30.67;;;28.20;;
56285;SDS011;42191;47.562;9.686;2022-08-25T11:31:01;28.85;;;27.00;;
56285;SDS011;42191;47.562;9.686;2022-08-25T11:33:29;29.38;;;27.10;;
56285;SDS011;42191;47.562;9.686;2022-08-25T11:35:57;29.85;;;27.83;;
56285;SDS011;42191;47.562;9.686;2022-08-25T11:38:45;28.48;;;26.27;;
56285;SDS011;42191;47.562;9.686;2022-08-25T11:49:49;29.27;;;27.38;;
56285;SDS011;42191;47.562;9.686;2022-08-25T11:55:10;30.20;;;28.20;;
56285;SDS011;42191;47.562;9.686;2022-08-25T11:57:41;26.85;;;25.05;;
56285;SDS011;42191;47.562;9.686;2022-08-25T12:08:50;28.80;;;26.75;;
56285;SDS011;42191;47.562;9.686;2022-08-25T12:14:31;28.17;;;26.35;;
56285;SDS011;42191;47.562;9.686;2022-08-25T12:17:07;29.10;;;27.20;;
56285;SDS011;42191;47.562;9.686;2022-08-25T12:32:34;28.95;;;27.08;;
56285;SDS011;42191;47.562;9.686;2022-08-25T12:42:59;28.67;;;26.88;;
56285;SDS011;42191;47.562;9.686;2022-08-25T12:45:36;27.92;;;26.02;;
56285;SDS011;42191;47.562;9.686;2022-08-25T12:50:58;28.00;;;26.20;;
56285;SDS011;42191;47.562;9.686;2022-08-25T12:53:30;28.38;;;26.48;;
56285;SDS011;42191;47.562;9.686;2022-08-25T12:56:04;28.58;;;26.55;;
56285;SDS011;42191;47.562;9.686;2022-08-25T12:59:15;27.38;;;25.35;;
56285;SDS011;42191;47.562;9.686;2022-08-25T13:05:00;27.08;;;25.17;;
56285;SDS011;42191;47.562;9.686;2022-08-25T13:10:27;27.10;;;25.40;;
56285;SDS011;42191;47.562;9.686;2022-08-25T13:13:18;27.60;;;25.90;;
56285;SDS011;42191;47.562;9.686;2022-08-25T13:15:57;27.15;;;25.35;;
56285;SDS011;42191;47.562;9.686;2022-08-25T13:18:26;28.20;;;26.30;;
56285;SDS011;42191;47.562;9.686;2022-08-25T13:21:00;27.20;;;25.50;;
56285;SDS011;42191;47.562;9.686;2022-08-25T13:23:38;27.38;;;25.67;;
56285;SDS011;42191;47.562;9.686;2022-08-25T13:26:07;27.63;;;25.83;;
56285;SDS011;42191;47.562;9.686;2022-08-25T13:31:07;25.55;;;23.95;;
56285;SDS011;42191;47.562;9.686;2022-08-25T13:33:45;24.92;;;23.23;;
56285;SDS011;42191;47.562;9.686;2022-08-25T13:36:22;24.60;;;23.00;;
56285;SDS011;42191;47.562;9.686;2022-08-25T13:39:10;23.77;;;22.30;;
56285;SDS011;42191;47.562;9.686;2022-08-25T13:41:38;22.92;;;21.52;;
56285;SDS011;42191;47.562;9.686;2022-08-25T13:44:16;22.65;;;21.23;;
56285;SDS011;42191;47.562;9.686;2022-08-25T13:46:44;22.55;;;21.15;;
56285;SDS011;42191;47.562;9.686;2022-08-25T13:49:11;21.88;;;20.58;;
56285;SDS011;42191;47.562;9.686;2022-08-25T13:51:50;22.15;;;20.77;;
56285;SDS011;42191;47.562;9.686;2022-08-25T13:54:26;21.33;;;19.70;;
56285;SDS011;42191;47.562;9.686;2022-08-25T13:57:02;20.58;;;19.27;;
56285;SDS011;42191;47.562;9.686;2022-08-25T13:59:39;20.83;;;19.63;;
56285;SDS011;42191;47.562;9.686;2022-08-25T14:02:07;21.10;;;19.70;;
56285;SDS011;42191;47.562;9.686;2022-08-25T14:09:44;20.65;;;19.35;;
56285;SDS011;42191;47.562;9.686;2022-08-25T14:12:32;20.75;;;19.45;;
56285;SDS011;42191;47.562;9.686;2022-08-25T14:17:41;20.60;;;19.40;;
56285;SDS011;42191;47.562;9.686;2022-08-25T14:20:30;20.70;;;19.33;;
56285;SDS011;42191;47.562;9.686;2022-08-25T14:23:01;20.90;;;19.40;;
56285;SDS011;42191;47.562;9.686;2022-08-25T14:25:30;20.38;;;19.05;;
56285;SDS011;42191;47.562;9.686;2022-08-25T14:28:00;20.75;;;19.45;;
56285;SDS011;42191;47.562;9.686;2022-08-25T14:30:50;20.75;;;19.45;;
56285;SDS011;42191;47.562;9.686;2022-08-25T14:33:20;20.48;;;19.08;;
56285;SDS011;42191;47.562;9.686;2022-08-25T14:35:51;20.63;;;19.27;;
56285;SDS011;42191;47.562;9.686;2022-08-25T14:38:18;21.05;;;19.63;;
56285;SDS011;42191;47.562;9.686;2022-08-25T14:40:45;21.08;;;19.77;;
56285;SDS011;42191;47.562;9.686;2022-08-25T14:43:12;20.90;;;19.60;;
56285;SDS011;42191;47.562;9.686;2022-08-25T14:45:40;21.20;;;19.80;;
56285;SDS011;42191;47.562;9.686;2022-08-25T14:48:09;21.23;;;19.80;;
56285;SDS011;42191;47.562;9.686;2022-08-25T14:50:41;21.30;;;20.00;;
56285;SDS011;42191;47.562;9.686;2022-08-25T14:53:09;21.70;;;20.33;;
56285;SDS011;42191;47.562;9.686;2022-08-25T14:55:35;21.77;;;20.38;;
56285;SDS011;42191;47.562;9.686;2022-08-25T14:58:02;21.70;;;20.40;;
56285;SDS011;42191;47.562;9.686;2022-08-25T15:00:28;21.35;;;19.95;;
56285;SDS011;42191;47.562;9.686;2022-08-25T15:03:04;21.77;;;20.48;;
56285;SDS011;42191;47.562;9.686;2022-08-25T15:05:30;21.23;;;19.92;;
56285;SDS011;42191;47.562;9.686;2022-08-25T15:07:57;22.00;;;20.50;;
56285;SDS011;42191;47.562;9.686;2022-08-25T15:10:41;21.52;;;20.13;;
56285;SDS011;42191;47.562;9.686;2022-08-25T15:13:07;22.40;;;21.00;;
56285;SDS011;42191;47.562;9.686;2022-08-25T15:15:35;22.13;;;20.75;;
56285;SDS011;42191;47.562;9.686;2022-08-25T15:18:06;22.13;;;20.52;;
56285;SDS011;42191;47.562;9.686;2022-08-25T15:20:32;21.30;;;19.98;;
56285;SDS011;42191;47.562;9.686;2022-08-25T15:22:59;21.65;;;20.05;;
56285;SDS011;42191;47.562;9.686;2022-08-25T15:25:25;21.40;;;19.95;;
56285;SDS011;42191;47.562;9.686;2022-08-25T15:27:53;21.20;;;19.90;;
56285;SDS011;42191;47.562;9.686;2022-08-25T15:30:19;21.23;;;19.92;;
56285;SDS011;42191;47.562;9.686;2022-08-25T15:32:45;21.90;;;20.50;;
56285;SDS011;42191;47.562;9.686;2022-08-25T15:35:11;21.35;;;20.05;;
56285;SDS011;42191;47.562;9.686;2022-08-25T15:37:37;20.63;;;19.42;;
56285;SDS011;42191;47.562;9.686;2022-08-25T15:40:04;21.45;;;20.05;;
56285;SDS011;42191;47.562;9.686;2022-08-25T15:42:32;21.50;;;20.10;;
56285;SDS011;42191;47.562;9.686;2022-08-25T15:45:00;22.17;;;20.77;;
56285;SDS011;42191;47.562;9.686;2022-08-25T15:47:26;22.23;;;20.65;;
56285;SDS011;42191;47.562;9.686;2022-08-25T15:49:58;22.65;;;21.25;;
56285;SDS011;42191;47.562;9.686;2022-08-25T15:52:29;23.52;;;21.92;;
56285;SDS011;42191;47.562;9.686;2022-08-25T15:54:55;23.13;;;21.63;;
56285;SDS011;42191;47.562;9.686;2022-08-25T15:57:21;23.77;;;22.17;;
56285;SDS011;42191;47.562;9.686;2022-08-25T15:59:47;23.98;;;22.48;;
56285;SDS011;42191;47.562;9.686;2022-08-25T16:02:13;24.15;;;22.65;;
56285;SDS011;42191;47.562;9.686;2022-08-25T16:04:39;23.92;;;22.33;;
56285;SDS011;42191;47.562;9.686;2022-08-25T16:07:05;22.30;;;20.92;;
56285;SDS011;42191;47.562;9.686;2022-08-25T16:09:31;23.70;;;22.20;;
56285;SDS011;42191;47.562;9.686;2022-08-25T16:11:59;23.90;;;22.35;;
56285;SDS011;42191;47.562;9.686;2022-08-25T16:14:25;22.25;;;20.85;;
56285;SDS011;42191;47.562;9.686;2022-08-25T16:16:51;24.52;;;22.73;;
56285;SDS011;42191;47.562;9.686;2022-08-25T16:19:17;22.17;;;20.58;;
56285;SDS011;42191;47.562;9.686;2022-08-25T16:21:44;23.25;;;21.30;;
56285;SDS011;42191;47.562;9.686;2022-08-25T16:24:10;21.98;;;20.27;;
56285;SDS011;42191;47.562;9.686;2022-08-25T16:26:36;22.05;;;20.45;;
56285;SDS011;42191;47.562;9.686;2022-08-25T16:29:06;23.38;;;21.20;;
56285;SDS011;42191;47.562;9.686;2022-08-25T16:31:34;22.60;;;20.88;;
56285;SDS011;42191;47.562;9.686;2022-08-25T16:34:00;22.45;;;21.08;;
56285;SDS011;42191;47.562;9.686;2022-08-25T16:36:26;22.25;;;20.70;;
56285;SDS011;42191;47.562;9.686;2022-08-25T16:38:52;22.88;;;21.25;;
56285;SDS011;42191;47.562;9.686;2022-08-25T16:41:22;22.90;;;21.25;;